Time;durP1;ratioP1;P1;durP2;ratioP2;P2;SDS_P1;SDS_P2;PMS_P1;PMS_P2;Temp;Humidity;BMP_temperature;BMP_pressure;BME280_temperature;BME280_humidity;BME280_pressure;Samples;Min_cycle;Max_cycle;Signal;HPM_P1;HPM_P2
2021/03/31 00:00:39;;;;;;;10.03;5.10;;;12.90;63.60;;;;;;5133830;28;20033;-64
2021/03/31 00:03:17;;;;;;;10.02;4.60;;;12.80;64.00;;;;;;5133480;28;20428;-65
2021/03/31 00:05:43;;;;;;;9.38;4.63;;;12.80;64.00;;;;;;5131968;28;20480;-64
2021/03/31 00:08:09;;;;;;;9.60;5.07;;;12.80;64.40;;;;;;5133207;28;20019;-64
2021/03/31 00:10:51;;;;;;;9.10;4.82;;;12.80;64.90;;;;;;5134151;28;20068;-64
2021/03/31 00:13:18;;;;;;;8.75;5.07;;;12.70;65.70;;;;;;5136387;27;20524;-65
2021/03/31 00:15:45;;;;;;;8.27;4.53;;;12.70;66.30;;;;;;5137820;27;20456;-65
2021/03/31 00:18:12;;;;;;;;;;;12.70;67.60;;;;;;5137574;27;20054;-64
2021/03/31 00:20:39;;;;;;;10.40;4.37;;;12.60;68.40;;;;;;5137269;27;20342;-65
2021/03/31 00:23:06;;;;;;;12.68;4.25;;;12.60;69.10;;;;;;5137137;27;20261;-66
2021/03/31 00:25:32;;;;;;;7.88;4.13;;;12.50;70.50;;;;;;5136788;27;20034;-66
2021/03/31 00:27:57;;;;;;;8.23;4.13;;;12.50;71.50;;;;;;5136595;27;20019;-66
2021/03/31 00:30:24;;;;;;;11.47;4.33;;;12.50;72.70;;;;;;5136450;27;20486;-65
2021/03/31 00:32:49;;;;;;;10.50;3.97;;;12.50;73.60;;;;;;5135074;27;20257;-64
2021/03/31 00:35:15;;;;;;;7.30;3.70;;;12.50;75.00;;;;;;5136430;27;20087;-64
2021/03/31 00:37:41;;;;;;;9.23;3.90;;;12.40;75.90;;;;;;5136645;27;20027;-64
2021/03/31 00:40:17;;;;;;;9.05;4.28;;;12.40;76.40;;;;;;5136289;27;20027;-65
2021/03/31 00:42:44;;;;;;;8.23;4.47;;;12.40;77.50;;;;;;5135251;27;20023;-65
2021/03/31 00:45:10;;;;;;;;;;;12.30;78.90;;;;;;5136893;27;20011;-65
2021/03/31 00:47:36;;;;;;;7.63;4.28;;;12.30;80.00;;;;;;5136119;27;19921;-65
2021/03/31 00:50:05;;;;;;;10.25;4.30;;;12.30;80.40;;;;;;5136323;27;20038;-65
2021/03/31 00:52:31;;;;;;;7.90;4.15;;;12.30;81.30;;;;;;5135994;27;20105;-65
2021/03/31 00:54:57;;;;;;;11.52;4.53;;;12.30;81.40;;;;;;5135890;27;20150;-65
2021/03/31 00:57:23;;;;;;;11.63;5.00;;;12.20;82.60;;;;;;5136280;27;20054;-65
2021/03/31 00:59:49;;;;;;;8.82;3.97;;;12.20;83.40;;;;;;5136184;27;20046;-65
2021/03/31 01:02:15;;;;;;;10.18;4.30;;;12.20;85.20;;;;;;5135829;27;20468;-65
2021/03/31 01:04:40;;;;;;;7.33;3.93;;;12.20;85.40;;;;;;5135874;27;20023;-66
2021/03/31 01:07:06;;;;;;;8.83;5.00;;;12.10;85.70;;;;;;5135950;27;20051;-65
2021/03/31 01:09:32;;;;;;;9.60;4.10;;;12.10;85.90;;;;;;5135966;27;20388;-65
2021/03/31 01:12:34;;;;;;;10.82;4.55;;;12.20;86.90;;;;;;5136329;27;20016;-66
2021/03/31 01:15:15;;;;;;;8.35;4.50;;;12.20;87.30;;;;;;5079996;27;20564;-66
2021/03/31 01:17:59;;;;;;;9.00;4.50;;;12.10;88.60;;;;;;5135990;27;20400;-65
2021/03/31 01:20:39;;;;;;;7.50;4.30;;;12.00;89.20;;;;;;5135949;27;20470;-66
2021/03/31 01:23:23;;;;;;;9.20;4.53;;;12.00;89.70;;;;;;5135284;27;20023;-65
2021/03/31 01:26:06;;;;;;;12.18;4.60;;;12.00;90.60;;;;;;5135467;27;20015;-65
2021/03/31 01:28:45;;;;;;;5.60;3.40;;;11.90;90.90;;;;;;5136195;27;20451;-65
2021/03/31 01:31:30;;;;;;;8.88;4.20;;;11.90;91.30;;;;;;5134531;27;20027;-65
2021/03/31 01:33:55;;;;;;;7.72;4.13;;;11.80;91.50;;;;;;5135208;27;20035;-65
2021/03/31 01:36:23;;;;;;;11.07;4.20;;;11.80;91.90;;;;;;5135670;27;20080;-65
2021/03/31 01:38:54;;;;;;;9.98;3.88;;;11.70;92.30;;;;;;5134296;27;20372;-65
2021/03/31 01:41:21;;;;;;;8.25;3.83;;;11.70;92.40;;;;;;5135652;27;20076;-65
2021/03/31 01:43:51;;;;;;;8.77;3.80;;;11.60;92.70;;;;;;5135041;27;20121;-66
2021/03/31 01:46:21;;;;;;;7.30;4.07;;;11.60;93.00;;;;;;5133860;27;20475;-66
2021/03/31 01:48:48;;;;;;;7.93;4.57;;;11.60;93.20;;;;;;5135086;27;20019;-66
2021/03/31 01:51:16;;;;;;;6.55;4.15;;;11.50;93.40;;;;;;5135629;27;20391;-66
2021/03/31 01:53:42;;;;;;;12.18;4.93;;;11.50;93.80;;;;;;5135350;27;20079;-66
2021/03/31 01:56:08;;;;;;;;;;;11.50;94.30;;;;;;5135856;27;20112;-65
2021/03/31 01:58:35;;;;;;;12.52;4.90;;;11.40;94.10;;;;;;5134798;27;19950;-65
2021/03/31 02:01:02;;;;;;;9.30;5.28;;;11.40;93.90;;;;;;5134649;27;20035;-66
2021/03/31 02:03:30;;;;;;;9.50;5.13;;;11.30;93.50;;;;;;5134622;27;20019;-66
2021/03/31 02:05:56;;;;;;;9.15;4.90;;;11.30;93.30;;;;;;5134657;27;20027;-65
2021/03/31 02:08:22;;;;;;;;;;;11.20;93.30;;;;;;5134934;27;20019;-65
2021/03/31 02:10:50;;;;;;;7.63;4.45;;;11.20;93.60;;;;;;5134828;27;20002;-65
2021/03/31 02:13:16;;;;;;;9.10;4.72;;;11.30;93.60;;;;;;5134488;27;20031;-66
2021/03/31 02:15:42;;;;;;;9.48;4.28;;;11.30;93.70;;;;;;5134764;27;20027;-66
2021/03/31 02:18:12;;;;;;;8.00;4.97;;;11.20;94.10;;;;;;5134773;27;20054;-65
2021/03/31 02:20:37;;;;;;;10.10;4.47;;;11.20;94.40;;;;;;5134467;27;20027;-65
2021/03/31 02:23:04;;;;;;;11.02;4.32;;;11.20;94.50;;;;;;5134542;27;20015;-65
2021/03/31 02:25:31;;;;;;;10.57;4.32;;;11.20;94.60;;;;;;5134469;27;20496;-65
2021/03/31 02:27:56;;;;;;;12.18;4.65;;;11.10;94.70;;;;;;5134824;27;20044;-65
2021/03/31 02:30:24;;;;;;;8.50;4.63;;;11.10;94.80;;;;;;5134417;27;20027;-65
2021/03/31 02:32:54;;;;;;;12.65;5.38;;;11.00;94.90;;;;;;5134523;27;20421;-65
2021/03/31 02:35:22;;;;;;;10.57;4.78;;;11.10;95.30;;;;;;5134284;27;20030;-64
2021/03/31 02:37:52;;;;;;;9.73;4.60;;;11.00;95.40;;;;;;5134582;27;20023;-65
2021/03/31 02:40:18;;;;;;;10.48;4.80;;;11.00;95.70;;;;;;5132931;27;20019;-65
2021/03/31 02:42:46;;;;;;;9.25;4.90;;;10.90;95.60;;;;;;5133071;27;20043;-65
2021/03/31 02:45:15;;;;;;;8.60;4.22;;;10.80;95.60;;;;;;5134210;27;20087;-66
2021/03/31 02:47:42;;;;;;;9.35;4.82;;;10.70;95.60;;;;;;5134319;27;20019;-65
2021/03/31 02:50:11;;;;;;;11.25;4.80;;;10.70;95.60;;;;;;5134134;27;20023;-64
2021/03/31 02:52:38;;;;;;;10.55;4.85;;;10.60;96.00;;;;;;5134504;27;20356;-64
2021/03/31 02:55:07;;;;;;;8.85;5.07;;;10.50;96.50;;;;;;5134113;27;20023;-65
2021/03/31 02:57:35;;;;;;;9.38;4.75;;;10.50;96.80;;;;;;5134143;27;20387;-65
2021/03/31 03:00:03;;;;;;;8.70;4.32;;;10.40;96.80;;;;;;5134304;28;20038;-65
2021/03/31 03:02:29;;;;;;;7.43;4.45;;;10.40;96.70;;;;;;5132528;28;20539;-65
2021/03/31 03:04:56;;;;;;;10.13;4.82;;;10.30;96.80;;;;;;5133975;28;20429;-65
2021/03/31 03:07:22;;;;;;;10.70;4.95;;;10.30;97.00;;;;;;5132632;28;20023;-65
2021/03/31 03:09:48;;;;;;;9.98;4.80;;;10.30;97.00;;;;;;5134155;28;20356;-65
2021/03/31 03:12:16;;;;;;;12.07;4.38;;;10.30;97.00;;;;;;5133728;28;20483;-65
2021/03/31 03:14:46;;;;;;;9.82;4.88;;;10.30;97.20;;;;;;5133703;28;20343;-66
2021/03/31 03:17:12;;;;;;;11.38;4.25;;;10.30;97.20;;;;;;5132296;28;20031;-65
2021/03/31 03:19:38;;;;;;;7.53;3.90;;;10.30;97.40;;;;;;5133898;28;20016;-65
2021/03/31 03:22:05;;;;;;;12.20;4.40;;;10.20;97.30;;;;;;5132627;28;20379;-65
2021/03/31 03:24:32;;;;;;;7.68;4.03;;;10.20;97.50;;;;;;5135227;28;20015;-64
2021/03/31 03:26:58;;;;;;;6.75;3.50;;;10.20;97.60;;;;;;5134171;28;20467;-64
2021/03/31 03:29:25;;;;;;;5.85;3.85;;;10.20;97.60;;;;;;5133937;28;20023;-65
2021/03/31 03:31:51;;;;;;;11.30;4.10;;;10.20;97.50;;;;;;5132518;28;20096;-65
2021/03/31 03:34:18;;;;;;;10.95;3.72;;;10.20;97.80;;;;;;5132309;28;20019;-66
2021/03/31 03:36:44;;;;;;;6.10;3.40;;;10.20;97.70;;;;;;5133828;28;20421;-66
2021/03/31 03:39:10;;;;;;;;;;;10.20;97.70;;;;;;5134715;28;20027;-65
2021/03/31 03:41:36;;;;;;;15.55;7.95;;;10.20;97.70;;;;;;5133543;28;19912;-65
2021/03/31 03:44:02;;;;;;;6.28;3.50;;;10.20;97.60;;;;;;5133825;28;20015;-64
2021/03/31 03:46:33;;;;;;;8.15;4.05;;;10.30;97.80;;;;;;5133867;27;20108;-65
2021/03/31 03:48:59;;;;;;;7.80;3.72;;;10.50;97.20;;;;;;5137652;27;20023;-64
2021/03/31 03:51:26;;;;;;;9.57;4.20;;;10.40;97.00;;;;;;5137554;27;20051;-65
2021/03/31 03:53:55;;;;;;;9.98;3.75;;;10.40;97.10;;;;;;5137482;27;20034;-64
2021/03/31 03:56:21;;;;;;;8.02;4.65;;;10.30;97.30;;;;;;5137675;27;20106;-64
2021/03/31 03:58:47;;;;;;;7.80;4.32;;;10.30;97.50;;;;;;5137587;27;20019;-65
2021/03/31 04:01:13;;;;;;;10.35;4.10;;;10.20;97.70;;;;;;5137208;27;20031;-66
2021/03/31 04:03:39;;;;;;;7.65;3.65;;;10.20;97.70;;;;;;5136029;27;20051;-65
2021/03/31 04:06:06;;;;;;;5.15;3.67;;;10.20;97.70;;;;;;5137207;27;20451;-66
2021/03/31 04:08:32;;;;;;;7.82;3.47;;;10.20;98.00;;;;;;5137182;27;20025;-66
2021/03/31 04:10:58;;;;;;;6.35;3.20;;;10.20;98.10;;;;;;5137417;27;20191;-65
2021/03/31 04:13:26;;;;;;;6.35;3.78;;;10.20;98.20;;;;;;5137266;27;20371;-65
2021/03/31 04:15:58;;;;;;;7.85;3.83;;;10.10;98.40;;;;;;5137369;27;20039;-66
2021/03/31 04:18:26;;;;;;;9.30;3.30;;;10.10;98.60;;;;;;5137129;27;20471;-65
2021/03/31 04:20:53;;;;;;;8.77;3.80;;;10.10;98.50;;;;;;5137020;27;20027;-65
2021/03/31 04:23:18;;;;;;;;;;;10.10;98.60;;;;;;5137234;27;20054;-65
2021/03/31 04:25:44;;;;;;;10.93;3.70;;;10.10;98.80;;;;;;5137157;27;19910;-65
2021/03/31 04:28:12;;;;;;;6.80;4.30;;;10.00;98.90;;;;;;5136824;27;20025;-65
2021/03/31 04:30:40;;;;;;;7.88;3.42;;;10.00;99.10;;;;;;5137147;27;20031;-65
2021/03/31 04:33:09;;;;;;;9.05;3.97;;;10.00;99.20;;;;;;5137041;27;20494;-71
2021/03/31 04:35:35;;;;;;;10.95;3.63;;;9.90;99.30;;;;;;5137312;27;20061;-66
2021/03/31 04:38:11;;;;;;;6.07;3.53;;;9.90;99.40;;;;;;5136541;27;20106;-67
2021/03/31 04:40:53;;;;;;;11.40;3.45;;;9.90;99.30;;;;;;5136411;27;20272;-66
2021/03/31 04:43:20;;;;;;;7.70;3.58;;;9.90;99.50;;;;;;5136494;27;20556;-66
2021/03/31 04:45:46;;;;;;;10.18;3.42;;;9.90;99.50;;;;;;5134874;27;20023;-66
2021/03/31 04:48:12;;;;;;;6.73;3.43;;;9.90;99.50;;;;;;5136333;27;20026;-66
2021/03/31 04:50:39;;;;;;;9.73;3.70;;;10.00;99.60;;;;;;5136682;27;20386;-66
2021/03/31 04:53:04;;;;;;;8.13;3.60;;;9.90;99.50;;;;;;5136980;27;20047;-64
2021/03/31 04:55:30;;;;;;;12.10;4.53;;;10.00;99.40;;;;;;5139613;27;20020;-66
2021/03/31 04:57:56;;;;;;;7.82;4.47;;;10.00;99.50;;;;;;5134218;27;20038;-65
2021/03/31 05:00:22;;;;;;;12.63;4.20;;;10.00;99.70;;;;;;5135602;27;20027;-65
2021/03/31 05:02:47;;;;;;;12.82;4.43;;;10.00;99.70;;;;;;5134953;27;20360;-67
2021/03/31 05:05:14;;;;;;;8.10;4.07;;;9.90;99.70;;;;;;5136111;27;20027;-66
2021/03/31 05:07:39;;;;;;;;;;;10.00;99.90;;;;;;5136592;27;20020;-67
2021/03/31 05:10:05;;;;;;;14.93;3.90;;;9.90;99.90;;;;;;5135095;27;20270;-65
2021/03/31 05:12:31;;;;;;;9.15;3.85;;;9.90;99.90;;;;;;5134753;27;20092;-67
2021/03/31 05:14:57;;;;;;;8.10;3.97;;;9.80;99.90;;;;;;5136001;27;20491;-66
2021/03/31 05:17:23;;;;;;;7.47;4.20;;;9.90;99.90;;;;;;5136260;27;20019;-65
2021/03/31 05:19:49;;;;;;;6.40;3.38;;;9.80;99.90;;;;;;5135764;27;20097;-66
2021/03/31 05:22:15;;;;;;;11.10;3.67;;;9.80;99.90;;;;;;5135706;27;20615;-67
2021/03/31 05:24:41;;;;;;;10.95;4.10;;;9.80;99.90;;;;;;5134325;27;20305;-67
2021/03/31 05:27:07;;;;;;;9.17;3.70;;;9.90;99.90;;;;;;5135731;27;20034;-67
2021/03/31 05:29:33;;;;;;;8.40;4.00;;;9.80;99.90;;;;;;5135712;27;20030;-66
2021/03/31 05:31:59;;;;;;;9.88;4.35;;;9.80;99.90;;;;;;5135557;27;20395;-67
2021/03/31 05:34:25;;;;;;;9.82;4.32;;;9.80;99.90;;;;;;5135765;27;20024;-66
2021/03/31 05:36:51;;;;;;;12.57;4.57;;;9.80;99.90;;;;;;5135528;27;20027;-65
2021/03/31 05:39:17;;;;;;;8.52;4.15;;;9.80;99.90;;;;;;5135323;27;20022;-65
2021/03/31 05:41:43;;;;;;;10.57;3.80;;;9.80;99.90;;;;;;5135367;27;20039;-66
2021/03/31 05:44:09;;;;;;;10.85;5.90;;;9.80;99.90;;;;;;5135335;27;20042;-67
2021/03/31 05:46:39;;;;;;;11.55;4.32;;;9.90;99.90;;;;;;5136173;27;20030;-68
2021/03/31 05:49:05;;;;;;;17.48;4.45;;;9.90;99.90;;;;;;5135643;27;20011;-67
2021/03/31 05:51:32;;;;;;;13.40;4.53;;;9.90;99.90;;;;;;5135487;27;20024;-66
2021/03/31 05:53:57;;;;;;;9.93;4.65;;;9.90;99.90;;;;;;5135155;27;20019;-71
2021/03/31 05:56:23;;;;;;;13.10;4.73;;;9.90;99.90;;;;;;5134323;27;20019;-66
2021/03/31 05:58:50;;;;;;;12.48;4.45;;;9.90;99.90;;;;;;5136062;27;20054;-66
2021/03/31 06:01:17;;;;;;;11.45;4.47;;;9.90;99.90;;;;;;5134987;27;20034;-65
2021/03/31 06:03:44;;;;;;;13.38;4.43;;;10.00;99.90;;;;;;5135057;27;20064;-66
2021/03/31 06:06:10;;;;;;;10.18;4.53;;;10.00;99.90;;;;;;5133562;27;20069;-66
2021/03/31 06:08:36;;;;;;;12.27;4.07;;;10.00;99.90;;;;;;5135893;27;20471;-65
2021/03/31 06:11:03;;;;;;;9.30;4.22;;;10.00;99.90;;;;;;5134755;27;20414;-65
2021/03/31 06:13:52;;;;;;;7.28;4.78;;;10.10;99.90;;;;;;5135109;27;20023;-65
2021/03/31 06:16:30;;;;;;;11.18;5.40;;;10.10;99.90;;;;;;5135113;27;20024;-66
2021/03/31 06:18:56;;;;;;;11.30;4.40;;;10.20;99.90;;;;;;5134643;27;20030;-66
2021/03/31 06:21:22;;;;;;;13.35;4.57;;;10.20;99.90;;;;;;5134481;27;20024;-66
2021/03/31 06:24:03;;;;;;;15.02;4.78;;;10.20;99.90;;;;;;5134423;27;20019;-66
2021/03/31 06:26:34;;;;;;;10.20;4.15;;;10.30;99.90;;;;;;5134723;27;20043;-65
2021/03/31 06:29:02;;;;;;;12.80;4.80;;;10.30;99.90;;;;;;5134501;27;20079;-66
2021/03/31 06:31:36;;;;;;;15.18;4.82;;;10.40;99.90;;;;;;5133981;27;20054;-66
2021/03/31 06:34:23;;;;;;;13.73;5.10;;;10.50;99.90;;;;;;5134651;27;20027;-66
2021/03/31 06:36:55;;;;;;;12.52;5.28;;;10.50;99.90;;;;;;5134575;27;20030;-66
2021/03/31 06:39:37;;;;;;;15.32;5.80;;;10.60;99.80;;;;;;5133133;27;20027;-65
2021/03/31 06:42:16;;;;;;;17.15;5.63;;;10.60;99.60;;;;;;5134333;27;20019;-65
2021/03/31 06:45:01;;;;;;;10.82;5.43;;;10.70;99.50;;;;;;5132991;27;20019;-64
2021/03/31 06:47:37;;;;;;;8.20;4.47;;;10.80;99.20;;;;;;5132654;27;20015;-65
2021/03/31 06:50:09;;;;;;;12.48;4.10;;;10.90;98.60;;;;;;5134239;27;20026;-66
2021/03/31 06:53:01;;;;;;;9.20;5.07;;;11.00;97.80;;;;;;5134339;27;20494;-65
2021/03/31 06:55:28;;;;;;;7.97;4.32;;;11.00;97.60;;;;;;5134109;27;20039;-64
2021/03/31 06:57:58;;;;;;;11.80;4.80;;;11.10;97.50;;;;;;5134506;27;20515;-66
2021/03/31 07:00:25;;;;;;;11.85;5.20;;;11.30;97.40;;;;;;5135336;27;20161;-66
2021/03/31 07:02:53;;;;;;;11.93;5.15;;;11.30;97.20;;;;;;5134622;28;20092;-67
2021/03/31 07:05:19;;;;;;;10.27;4.88;;;11.50;96.90;;;;;;5136080;28;20079;-67
2021/03/31 07:07:45;;;;;;;8.02;4.38;;;11.60;96.60;;;;;;5134262;28;20394;-67
2021/03/31 07:10:21;;;;;;;13.40;4.70;;;11.60;96.30;;;;;;5135330;28;20023;-66
2021/03/31 07:12:51;;;;;;;12.33;4.27;;;11.70;96.20;;;;;;5134672;28;20019;-67
2021/03/31 07:15:24;;;;;;;10.77;4.75;;;11.90;95.70;;;;;;5134607;28;20038;-65
2021/03/31 07:17:55;;;;;;;11.10;4.43;;;12.00;95.60;;;;;;5134415;28;20106;-65
2021/03/31 07:20:22;;;;;;;11.60;4.03;;;12.10;95.10;;;;;;5132694;28;20030;-66
2021/03/31 07:22:48;;;;;;;13.80;4.60;;;12.10;95.00;;;;;;5135514;27;20406;-65
2021/03/31 07:25:16;;;;;;;7.05;4.22;;;12.20;94.60;;;;;;5138917;27;20049;-66
2021/03/31 07:27:46;;;;;;;9.00;4.13;;;12.20;94.60;;;;;;5139666;27;20111;-66
2021/03/31 07:30:16;;;;;;;14.02;4.40;;;12.30;94.90;;;;;;5139185;27;20058;-66
2021/03/31 07:32:53;;;;;;;14.07;4.47;;;12.40;94.80;;;;;;5138570;27;20019;-66
2021/03/31 07:35:23;;;;;;;;;;;12.40;94.80;;;;;;5138347;27;20386;-66
2021/03/31 07:37:50;;;;;;;9.32;4.05;;;12.50;94.70;;;;;;5138031;27;19926;-66
2021/03/31 07:40:17;;;;;;;10.00;4.45;;;12.50;94.70;;;;;;5137573;27;20031;-67
2021/03/31 07:43:03;;;;;;;8.88;4.07;;;12.60;94.60;;;;;;5138098;27;20412;-66
2021/03/31 07:45:33;;;;;;;7.57;3.65;;;12.70;94.40;;;;;;5137088;27;20024;-66
2021/03/31 07:47:59;;;;;;;7.60;4.05;;;12.70;94.30;;;;;;5138067;27;20067;-66
2021/03/31 07:50:25;;;;;;;8.23;4.53;;;12.80;94.20;;;;;;5137829;27;20020;-66
2021/03/31 07:52:57;;;;;;;9.27;4.20;;;12.90;94.10;;;;;;5138495;27;20091;-65
2021/03/31 07:55:40;;;;;;;10.18;4.57;;;13.00;94.10;;;;;;5137323;27;20387;-65
2021/03/31 07:58:24;;;;;;;10.48;5.07;;;13.10;94.00;;;;;;5137947;27;20494;-65
2021/03/31 08:00:56;;;;;;;9.52;4.10;;;13.20;94.20;;;;;;5137454;27;20478;-66
2021/03/31 08:03:28;;;;;;;9.63;4.03;;;13.30;94.00;;;;;;5137063;27;20389;-66
2021/03/31 08:06:13;;;;;;;8.73;4.05;;;13.40;93.70;;;;;;5137455;27;20023;-66
2021/03/31 08:08:46;;;;;;;9.50;4.38;;;13.50;93.70;;;;;;5137539;27;20053;-69
2021/03/31 08:11:13;;;;;;;7.57;4.38;;;13.60;93.70;;;;;;5137841;27;20110;-69
2021/03/31 08:13:45;;;;;;;11.25;4.40;;;13.70;93.10;;;;;;5137486;27;20027;-69
2021/03/31 08:16:26;;;;;;;12.25;4.43;;;13.70;92.90;;;;;;5137402;27;20042;-68
2021/03/31 08:18:54;;;;;;;8.43;4.47;;;13.80;92.70;;;;;;5137953;27;20555;-68
2021/03/31 08:21:27;;;;;;;7.78;4.38;;;13.90;92.40;;;;;;5138780;27;20027;-68
2021/03/31 08:23:55;;;;;;;9.05;3.80;;;14.00;92.10;;;;;;5136895;27;20031;-67
2021/03/31 08:26:42;;;;;;;6.95;4.28;;;14.10;91.90;;;;;;5137944;27;20019;-66
2021/03/31 08:29:17;;;;;;;7.20;4.35;;;14.20;91.70;;;;;;5135500;27;20019;-66
2021/03/31 08:31:42;;;;;;;8.10;4.10;;;14.30;91.40;;;;;;5136784;27;20027;-66
2021/03/31 08:34:10;;;;;;;8.30;4.47;;;14.40;91.20;;;;;;5135093;27;20431;-66
2021/03/31 08:36:36;;;;;;;6.90;3.80;;;14.50;91.00;;;;;;5137358;27;20027;-68
2021/03/31 08:39:06;;;;;;;15.00;4.80;;;14.60;90.80;;;;;;5136932;27;20098;-66
2021/03/31 08:41:31;;;;;;;15.55;4.28;;;14.80;90.80;;;;;;5136754;27;20027;-66
2021/03/31 08:44:15;;;;;;;7.40;3.83;;;14.80;90.40;;;;;;5136481;27;20095;-67
2021/03/31 08:46:42;;;;;;;11.02;4.63;;;15.00;90.10;;;;;;5137409;27;20806;-66
2021/03/31 08:49:24;;;;;;;8.93;4.05;;;15.10;89.10;;;;;;5137083;27;20076;-66
2021/03/31 08:51:52;;;;;;;15.38;4.45;;;15.50;88.60;;;;;;5136362;27;20051;-67
2021/03/31 08:54:35;;;;;;;8.07;4.53;;;17.40;84.50;;;;;;5136335;27;20026;-68
2021/03/31 08:57:06;;;;;;;9.18;3.90;;;20.60;73.30;;;;;;5136284;27;20026;-67
2021/03/31 08:59:33;;;;;;;10.30;4.38;;;23.50;59.70;;;;;;5136440;27;20493;-65
2021/03/31 09:01:59;;;;;;;8.23;4.05;;;26.10;51.10;;;;;;5136072;27;20093;-67
2021/03/31 09:04:25;;;;;;;8.88;3.78;;;28.40;46.30;;;;;;5136042;27;20031;-68
2021/03/31 09:06:55;;;;;;;10.38;3.90;;;29.90;41.70;;;;;;5136031;27;20019;-68
2021/03/31 09:09:21;;;;;;;7.38;3.88;;;31.20;39.60;;;;;;5136211;27;20114;-67
2021/03/31 09:11:47;;;;;;;9.38;4.47;;;32.10;37.90;;;;;;5136259;27;20027;-68
2021/03/31 09:14:24;;;;;;;8.77;4.00;;;32.60;37.10;;;;;;5135851;27;20080;-67
2021/03/31 09:16:59;;;;;;;9.07;3.90;;;33.10;36.00;;;;;;5136057;27;20023;-67
2021/03/31 09:19:28;;;;;;;8.15;3.95;;;33.70;35.10;;;;;;5134870;27;20068;-67
2021/03/31 09:21:54;;;;;;;6.13;4.20;;;33.40;34.30;;;;;;5135849;27;20031;-68
2021/03/31 09:24:25;;;;;;;7.75;4.05;;;32.70;34.20;;;;;;5135970;27;20148;-67
2021/03/31 09:26:59;;;;;;;6.93;3.65;;;32.50;34.70;;;;;;5136054;27;20053;-67
2021/03/31 09:29:26;;;;;;;8.45;3.58;;;33.00;34.00;;;;;;5134528;27;20027;-67
2021/03/31 09:31:53;;;;;;;8.15;4.05;;;33.60;33.60;;;;;;5134335;27;20483;-67
2021/03/31 09:34:19;;;;;;;5.03;3.50;;;34.10;33.10;;;;;;5134004;27;20031;-67
2021/03/31 09:37:06;;;;;;;8.25;3.88;;;35.10;32.60;;;;;;5135879;27;20027;-67
2021/03/31 09:39:39;;;;;;;7.35;3.70;;;35.90;32.20;;;;;;5135889;27;20080;-68
2021/03/31 09:42:06;;;;;;;6.25;3.25;;;35.90;31.90;;;;;;5135705;27;20106;-66
2021/03/31 09:44:32;;;;;;;10.35;3.92;;;35.20;31.80;;;;;;5134924;27;20434;-67
2021/03/31 09:47:00;;;;;;;7.35;3.88;;;35.10;31.90;;;;;;5136054;27;20020;-70
2021/03/31 09:49:26;;;;;;;5.25;3.90;;;35.20;31.70;;;;;;5135599;27;20057;-73
2021/03/31 09:51:52;;;;;;;6.57;4.03;;;36.20;31.40;;;;;;5135998;27;20023;-70
2021/03/31 09:54:18;;;;;;;8.48;4.20;;;35.70;30.80;;;;;;5135287;27;20365;-68
2021/03/31 09:56:44;;;;;;;7.32;4.22;;;34.20;31.90;;;;;;5135560;27;20027;-71
2021/03/31 09:59:10;;;;;;;11.23;6.45;;;33.50;32.70;;;;;;5135805;27;20403;-70
2021/03/31 10:01:37;;;;;;;11.73;5.03;;;34.20;32.40;;;;;;5134209;27;20034;-70
2021/03/31 10:04:03;;;;;;;19.17;5.15;;;35.00;32.00;;;;;;5135644;27;20027;-70
2021/03/31 10:06:29;;;;;;;12.60;5.68;;;33.50;32.50;;;;;;5135276;27;20034;-70
2021/03/31 10:08:55;;;;;;;10.13;5.32;;;31.80;33.50;;;;;;5135611;27;20384;-71
2021/03/31 10:11:27;;;;;;;10.90;4.57;;;31.60;34.20;;;;;;5135346;27;20022;-70
2021/03/31 10:13:53;;;;;;;11.68;6.03;;;32.80;33.90;;;;;;5134123;27;20027;-71
2021/03/31 10:16:19;;;;;;;10.93;5.40;;;34.20;33.30;;;;;;5135733;27;20027;-71
2021/03/31 10:18:45;;;;;;;12.48;5.68;;;35.40;32.30;;;;;;5136444;27;20019;-71
2021/03/31 10:21:11;;;;;;;15.10;6.18;;;36.20;31.60;;;;;;5136237;27;20104;-72
2021/03/31 10:23:44;;;;;;;15.48;9.35;;;36.30;31.60;;;;;;5139593;27;20046;-71
2021/03/31 10:26:26;;;;;;;12.48;6.28;;;35.40;32.10;;;;;;5140663;27;20023;-71
2021/03/31 10:29:00;;;;;;;12.57;6.47;;;35.40;31.60;;;;;;5135925;27;20023;-71
2021/03/31 10:31:34;;;;;;;9.43;5.40;;;35.40;32.10;;;;;;5135506;27;20507;-72
2021/03/31 10:34:00;;;;;;;8.15;5.05;;;36.30;31.60;;;;;;5138834;27;20015;-72
2021/03/31 10:36:39;;;;;;;11.27;5.70;;;37.10;31.10;;;;;;5135020;27;20019;-72
2021/03/31 10:50:19;;;;;;;9.63;5.60;;;37.00;30.80;;;;;;5134979;27;20027;-71
2021/03/31 10:52:54;;;;;;;12.07;6.38;;;37.50;30.70;;;;;;5133396;27;20027;-72
2021/03/31 10:55:19;;;;;;;;;;;38.10;31.00;;;;;;5134059;27;20096;-71
2021/03/31 10:57:45;;;;;;;9.43;6.25;;;38.40;29.70;;;;;;5134678;27;20287;-71
2021/03/31 11:00:14;;;;;;;11.52;6.20;;;37.50;30.00;;;;;;5132874;27;20119;-71
2021/03/31 11:02:40;;;;;;;11.57;7.10;;;37.30;30.20;;;;;;5134458;28;20023;-71
2021/03/31 11:05:06;;;;;;;11.45;7.53;;;37.50;29.80;;;;;;5134589;28;20023;-70
2021/03/31 11:07:32;;;;;;;12.13;7.03;;;36.50;30.00;;;;;;5132880;28;20015;-70
2021/03/31 11:09:57;;;;;;;11.88;7.82;;;34.70;30.60;;;;;;5132956;28;20443;-70
2021/03/31 11:12:23;;;;;;;14.43;8.50;;;33.10;31.60;;;;;;5135518;28;20019;-70
2021/03/31 11:14:49;;;;;;;15.02;8.35;;;31.50;32.70;;;;;;5134823;28;20031;-70
2021/03/31 11:18:17;;;;;;;13.52;9.43;;;29.40;34.20;;;;;;5133192;28;20383;-69
2021/03/31 11:25:54;;;;;;;17.20;9.27;;;26.00;37.60;;;;;;5136498;28;20491;-70
2021/03/31 11:28:21;;;;;;;16.02;8.75;;;25.10;38.90;;;;;;5134682;28;20023;-70
2021/03/31 11:30:47;;;;;;;16.08;8.73;;;24.40;39.90;;;;;;5134882;27;20019;-69
2021/03/31 11:33:13;;;;;;;;;;;24.00;40.90;;;;;;5134865;28;20023;-71
2021/03/31 11:35:38;;;;;;;20.65;8.90;;;23.60;41.60;;;;;;5134845;28;20374;-70
2021/03/31 11:38:05;;;;;;;15.93;8.50;;;23.40;42.20;;;;;;5134898;28;20083;-70
2021/03/31 11:40:31;;;;;;;15.05;7.55;;;23.30;42.50;;;;;;5134581;28;20539;-70
2021/03/31 11:42:56;;;;;;;16.20;8.02;;;23.30;42.50;;;;;;5134298;28;20111;-70
2021/03/31 11:45:22;;;;;;;;;;;23.30;42.80;;;;;;5134785;28;20106;-71
2021/03/31 11:47:48;;;;;;;14.07;7.43;;;23.20;42.80;;;;;;5133058;28;19903;-69
2021/03/31 11:50:14;;;;;;;14.85;6.70;;;23.30;43.00;;;;;;5134211;28;20489;-69
2021/03/31 11:52:39;;;;;;;;;;;23.30;43.10;;;;;;5133313;28;20027;-69
2021/03/31 11:55:06;;;;;;;14.10;7.70;;;23.40;43.20;;;;;;5134246;28;20412;-71
2021/03/31 11:57:32;;;;;;;13.73;7.10;;;23.20;42.90;;;;;;5134400;28;20080;-69
2021/03/31 11:59:58;;;;;;;12.73;6.63;;;23.10;43.40;;;;;;5132977;28;20463;-68
2021/03/31 12:02:23;;;;;;;13.05;6.60;;;23.10;43.40;;;;;;5132579;28;20072;-69
2021/03/31 12:04:51;;;;;;;12.32;6.03;;;23.20;43.90;;;;;;5133629;28;20019;-69
2021/03/31 12:07:20;;;;;;;14.05;5.53;;;23.10;43.10;;;;;;5134039;27;20106;-70
2021/03/31 12:09:46;;;;;;;10.00;5.85;;;23.10;43.50;;;;;;5138132;27;20029;-69
2021/03/31 12:12:13;;;;;;;11.77;5.50;;;23.10;43.40;;;;;;5137791;27;20094;-67
2021/03/31 12:14:40;;;;;;;10.48;4.72;;;23.10;42.70;;;;;;5137918;27;20074;-65
2021/03/31 12:17:06;;;;;;;10.27;5.35;;;23.10;42.50;;;;;;5138373;27;20034;-66
2021/03/31 12:19:32;;;;;;;;;;;23.20;42.30;;;;;;5138334;27;20015;-66
2021/03/31 12:21:57;;;;;;;14.20;5.15;;;23.20;42.40;;;;;;5136202;27;19926;-65
2021/03/31 12:24:24;;;;;;;12.30;5.10;;;23.10;43.20;;;;;;5137384;27;20027;-65
2021/03/31 12:26:50;;;;;;;9.73;4.60;;;23.20;41.00;;;;;;5137412;27;20144;-65
2021/03/31 12:29:17;;;;;;;8.75;4.38;;;23.20;39.80;;;;;;5137662;27;20470;-65
2021/03/31 12:31:43;;;;;;;6.75;3.55;;;23.30;38.60;;;;;;5137525;27;20126;-65
2021/03/31 12:34:09;;;;;;;4.07;3.17;;;23.40;37.90;;;;;;5137002;27;20019;-65
2021/03/31 12:36:34;;;;;;;;;;;23.50;36.80;;;;;;5135790;27;20076;-64
2021/03/31 12:39:00;;;;;;;6.13;3.45;;;23.50;36.80;;;;;;5135748;27;19904;-65
2021/03/31 12:41:26;;;;;;;7.32;3.47;;;23.70;37.20;;;;;;5136398;27;20053;-65
2021/03/31 12:43:52;;;;;;;9.05;3.75;;;23.80;37.30;;;;;;5136510;27;20098;-64
2021/03/31 12:46:18;;;;;;;10.07;4.28;;;23.80;37.50;;;;;;5136350;27;20027;-66
2021/03/31 12:48:43;;;;;;;12.57;3.20;;;23.90;38.20;;;;;;5135389;27;20412;-66
2021/03/31 12:51:13;;;;;;;5.93;3.40;;;23.90;37.80;;;;;;5136610;27;20372;-66
2021/03/31 12:53:49;;;;;;;5.72;3.33;;;23.90;37.00;;;;;;5136111;27;20107;-66
2021/03/31 12:56:15;;;;;;;6.63;3.47;;;23.80;36.50;;;;;;5136366;27;20475;-66
2021/03/31 12:58:42;;;;;;;6.32;3.13;;;23.90;36.70;;;;;;5136108;27;20029;-67
2021/03/31 13:01:19;;;;;;;6.60;3.60;;;23.90;36.10;;;;;;5136528;27;20110;-66
2021/03/31 13:03:45;;;;;;;8.13;3.25;;;24.10;35.90;;;;;;5136517;27;20106;-67
2021/03/31 13:06:12;;;;;;;8.20;3.88;;;24.20;35.70;;;;;;5136308;27;20058;-66
2021/03/31 13:08:37;;;;;;;7.00;3.58;;;24.20;35.50;;;;;;5136694;27;20448;-66
2021/03/31 13:11:03;;;;;;;8.25;3.40;;;24.30;34.50;;;;;;5136995;27;20030;-65
2021/03/31 13:26:18;;;;;;;8.90;5.07;;;24.60;38.00;;;;;;5135688;27;20031;-65